Time;durP1;ratioP1;P1;durP2;ratioP2;P2;SDS_P1;SDS_P2;PMS_P1;PMS_P2;Temp;Humidity;BMP_temperature;BMP_pressure;BME280_temperature;BME280_humidity;BME280_pressure;Samples;Min_cycle;Max_cycle;Signal;HPM_P1;HPM_P2
2022/08/03 00:01:02;;;;;;;24.00;9.83;;;;;;;24.75;100.00;101385.66;5002731;28;19940;-53
2022/08/03 00:03:27;;;;;;;15.68;7.15;;;;;;;24.62;100.00;101383.47;5004929;28;20066;-52
2022/08/03 00:05:53;;;;;;;17.45;3.65;;;;;;;24.87;100.00;101384.50;5003466;28;20039;-49
2022/08/03 00:08:18;;;;;;;16.42;3.35;;;;;;;24.77;100.00;101372.50;5007549;28;20039;-53
2022/08/03 00:10:44;;;;;;;20.23;5.32;;;;;;;24.86;100.00;101375.50;5002571;28;20105;-51
2022/08/03 00:13:11;;;;;;;12.48;3.97;;;;;;;24.98;100.00;101374.34;5002116;28;20030;-52
2022/08/03 00:15:38;;;;;;;7.53;2.70;;;;;;;25.01;100.00;101374.59;5007639;28;20049;-53
2022/08/03 00:18:04;;;;;;;12.30;2.93;;;;;;;24.83;100.00;101367.03;5003480;28;20061;-55
2022/08/03 00:20:30;;;;;;;8.35;2.78;;;;;;;24.62;100.00;101372.53;5004390;28;20034;-52
2022/08/03 00:22:55;;;;;;;5.88;2.58;;;;;;;24.74;100.00;101373.03;5003343;28;20058;-51
2022/08/03 00:25:21;;;;;;;8.95;2.88;;;;;;;24.55;100.00;101369.28;5003356;28;20419;-52
2022/08/03 00:27:46;;;;;;;7.03;3.00;;;;;;;24.54;100.00;101365.69;5005628;28;20070;-49
2022/08/03 00:30:12;;;;;;;9.55;2.60;;;;;;;24.72;100.00;101369.78;5000728;28;20113;-51
2022/08/03 00:32:37;;;;;;;20.08;2.83;;;;;;;24.35;100.00;101370.94;5002565;28;20031;-51
2022/08/03 00:35:03;;;;;;;14.65;3.55;;;;;;;24.47;100.00;101363.28;5003690;28;20111;-50
2022/08/03 00:37:28;;;;;;;11.02;2.55;;;;;;;24.37;100.00;101367.94;5003225;28;20043;-50
2022/08/03 00:39:54;;;;;;;14.98;2.40;;;;;;;24.55;100.00;101370.06;5003714;28;20054;-52
2022/08/03 00:42:19;;;;;;;16.58;2.75;;;;;;;24.56;100.00;101357.22;5005025;28;20046;-49
2022/08/03 00:44:44;;;;;;;8.43;2.60;;;;;;;24.51;100.00;101360.00;5003556;28;20105;-52
2022/08/03 00:47:10;;;;;;;7.57;2.58;;;;;;;24.58;100.00;101360.50;5004598;28;20061;-51
2022/08/03 00:49:37;;;;;;;10.60;2.65;;;;;;;24.55;100.00;101363.81;5003772;28;20091;-50
2022/08/03 00:52:03;;;;;;;11.03;2.77;;;;;;;24.42;100.00;101352.34;5004655;28;20049;-50
2022/08/03 00:54:29;;;;;;;6.35;2.63;;;;;;;24.33;100.00;101362.22;5009114;28;20054;-47
2022/08/03 00:56:54;;;;;;;16.00;3.75;;;;;;;24.36;100.00;101366.31;5006986;28;20060;-51
2022/08/03 00:59:21;;;;;;;8.93;3.10;;;;;;;24.44;100.00;101357.53;5007815;28;20036;-49
2022/08/03 01:01:46;;;;;;;;;;;;;;;24.51;100.00;101357.25;5007525;28;20033;-50
2022/08/03 01:04:12;;;;;;;8.87;3.17;;;;;;;24.46;100.00;101353.44;5008048;28;19914;-49
2022/08/03 01:07:07;;;;;;;11.13;3.50;;;;;;;24.47;100.00;101349.63;5008709;28;20041;-51
2022/08/03 01:09:58;;;;;;;10.90;3.43;;;;;;;24.44;100.00;101347.41;5007172;28;20042;-49
2022/08/03 01:12:49;;;;;;;12.23;2.50;;;;;;;24.43;100.00;101351.25;5006506;28;20060;-50
2022/08/03 01:15:24;;;;;;;10.93;2.97;;;;;;;24.48;100.00;101343.06;5020101;28;20059;-51
2022/08/03 01:18:04;;;;;;;14.37;3.80;;;;;;;24.19;100.00;101351.84;5009802;28;20038;-49
2022/08/03 01:20:37;;;;;;;12.70;3.27;;;;;;;24.23;100.00;101351.31;5006897;28;20026;-47
2022/08/03 01:23:24;;;;;;;7.53;3.00;;;;;;;24.26;100.00;101340.63;5005219;28;20046;-50
2022/08/03 01:26:19;;;;;;;7.57;2.73;;;;;;;24.14;100.00;101351.03;5006544;28;20034;-48
2022/08/03 01:29:02;;;;;;;12.60;3.23;;;;;;;24.06;100.00;101352.41;5006059;28;20043;-53
2022/08/03 01:31:40;;;;;;;8.10;3.33;;;;;;;23.83;100.00;101353.75;5009486;28;20034;-51
2022/08/03 01:34:10;;;;;;;15.57;4.67;;;;;;;24.02;100.00;101348.59;5008155;28;20030;-51
2022/08/03 01:36:42;;;;;;;13.70;3.60;;;;;;;24.19;100.00;101345.56;5007876;28;20038;-49
2022/08/03 01:39:08;;;;;;;12.30;4.00;;;;;;;24.03;100.00;101347.50;5009896;28;20042;-53
2022/08/03 01:41:43;;;;;;;;;;;;;;;23.98;100.00;101350.19;5046528;28;20044;-49
2022/08/03 01:44:11;;;;;;;15.30;4.20;;;;;;;24.51;100.00;101335.38;5098695;28;20006;-49
2022/08/03 01:46:39;;;;;;;17.83;4.90;;;;;;;23.94;100.00;101343.63;5100609;28;20035;-48
2022/08/03 01:49:09;;;;;;;17.63;4.77;;;;;;;23.90;100.00;101344.19;5093959;28;20036;-49
2022/08/03 01:51:38;;;;;;;17.50;4.77;;;;;;;24.09;100.00;101349.13;5096809;28;20051;-48
2022/08/03 01:54:05;;;;;;;18.23;5.67;;;;;;;23.99;100.00;101335.44;5094672;28;20044;-50
2022/08/03 01:56:32;;;;;;;16.93;5.07;;;;;;;23.76;100.00;101337.66;5096375;28;20088;-48
2022/08/03 01:58:59;;;;;;;;;;;;;;;23.89;100.00;101339.00;5092370;28;20032;-48
2022/08/03 02:01:27;;;;;;;14.43;4.77;;;;;;;23.89;100.00;101336.28;5097396;28;19924;-46
2022/08/03 02:03:55;;;;;;;12.73;5.17;;;;;;;23.74;100.00;101337.91;5097991;28;20037;-47
2022/08/03 02:06:21;;;;;;;13.57;5.30;;;;;;;23.73;100.00;101340.91;5092836;28;20028;-47
2022/08/03 02:08:50;;;;;;;17.07;4.40;;;;;;;23.45;100.00;101337.59;5099676;28;20055;-52
2022/08/03 02:11:16;;;;;;;26.67;5.80;;;;;;;23.67;100.00;101337.38;5097057;28;20055;-54
2022/08/03 02:13:44;;;;;;;12.05;4.75;;;;;;;23.78;100.00;101335.47;5078726;28;20030;-49
2022/08/03 02:16:12;;;;;;;16.60;6.03;;;;;;;23.66;100.00;101326.72;5091097;28;20041;-51
2022/08/03 02:18:39;;;;;;;21.63;5.67;;;;;;;23.82;100.00;101324.78;5097382;28;20042;-49
2022/08/03 02:21:09;;;;;;;14.53;4.93;;;;;;;23.85;100.00;101327.81;5095266;28;20044;-50
2022/08/03 02:23:35;;;;;;;19.70;5.80;;;;;;;23.68;100.00;101329.97;5095856;28;20146;-52
2022/08/03 02:26:03;;;;;;;14.37;5.90;;;;;;;23.64;100.00;101335.16;5097076;28;20024;-49
2022/08/03 02:28:34;;;;;;;11.83;5.07;;;;;;;23.72;100.00;101331.06;5096251;28;20024;-48
2022/08/03 02:31:04;;;;;;;16.07;5.77;;;;;;;23.59;100.00;101338.72;5098688;28;20033;-50
2022/08/03 02:33:36;;;;;;;15.77;6.30;;;;;;;23.51;100.00;101333.78;5098115;28;20036;-54
2022/08/03 02:36:03;;;;;;;14.73;6.40;;;;;;;23.56;100.00;101333.81;5095898;28;20032;-52
2022/08/03 02:38:33;;;;;;;19.00;7.00;;;;;;;23.63;100.00;101328.91;5099267;28;20063;-51
2022/08/03 02:41:00;;;;;;;15.60;7.07;;;;;;;23.56;100.00;101333.81;5089390;28;20105;-51
2022/08/03 02:43:30;;;;;;;18.00;7.57;;;;;;;23.58;100.00;101331.63;5093542;28;21296;-47
2022/08/03 02:45:56;;;;;;;14.97;6.33;;;;;;;23.47;100.00;101335.41;5094223;28;20052;-50
2022/08/03 02:48:29;;;;;;;19.02;6.70;;;;;;;23.52;100.00;101338.16;5091078;28;20033;-54
2022/08/03 02:50:57;;;;;;;25.67;7.53;;;;;;;23.55;100.00;101336.81;5093486;28;20051;-51
2022/08/03 02:53:23;;;;;;;24.27;6.53;;;;;;;23.51;100.00;101328.31;5094459;28;20029;-47
2022/08/03 02:55:49;;;;;;;;;;;;;;;23.25;100.00;101328.28;5097337;28;20035;-51
2022/08/03 02:58:20;;;;;;;17.57;6.33;;;;;;;23.22;100.00;101317.88;5099006;28;19916;-47
2022/08/03 03:00:46;;;;;;;16.63;4.57;;;;;;;23.01;100.00;101319.75;5096054;28;20048;-50
2022/08/03 03:03:12;;;;;;;18.77;6.27;;;;;;;23.20;100.00;101320.06;5099201;28;20029;-50
2022/08/03 03:05:40;;;;;;;18.77;5.37;;;;;;;23.20;100.00;101317.34;5101441;28;20032;-52
2022/08/03 03:08:07;;;;;;;21.33;6.53;;;;;;;23.39;100.00;101306.75;5099140;28;20033;-50
2022/08/03 03:10:33;;;;;;;16.70;5.97;;;;;;;23.02;100.00;101314.00;5093698;28;20039;-51
2022/08/03 03:13:00;;;;;;;16.40;5.85;;;;;;;22.95;100.00;101309.88;5090544;28;20025;-51
2022/08/03 03:15:28;;;;;;;17.90;5.70;;;;;;;23.11;100.00;101299.88;5090369;28;20029;-46
2022/08/03 03:17:55;;;;;;;21.63;5.10;;;;;;;23.06;100.00;101311.56;5094390;28;20037;-52
2022/08/03 03:20:20;;;;;;;;;;;;;;;23.00;100.00;101305.28;5094475;28;20060;-51
2022/08/03 03:22:50;;;;;;;15.53;6.13;;;;;;;23.02;100.00;101299.56;5092287;28;19916;-50
2022/08/03 03:25:16;;;;;;;17.47;5.13;;;;;;;23.14;100.00;101307.50;5096465;28;20033;-52
2022/08/03 03:27:42;;;;;;;20.73;6.63;;;;;;;23.10;100.00;101315.41;5097521;28;20067;-49
2022/08/03 03:30:08;;;;;;;18.40;5.10;;;;;;;23.09;100.00;101307.50;5098252;28;20028;-52
2022/08/03 03:32:35;;;;;;;21.17;6.55;;;;;;;22.82;100.00;101301.13;5103350;28;20036;-52
2022/08/03 03:35:03;;;;;;;17.90;6.07;;;;;;;23.41;100.00;101309.22;5102664;28;20033;-52
2022/08/03 03:37:29;;;;;;;21.53;6.80;;;;;;;23.15;100.00;101312.69;5098417;28;20048;-51
2022/08/03 03:39:55;;;;;;;29.58;7.15;;;;;;;23.33;100.00;101316.03;5088616;28;20043;-53
2022/08/03 03:42:21;;;;;;;15.00;6.57;;;;;;;23.27;100.00;101306.19;5089930;28;20103;-53
2022/08/03 03:44:47;;;;;;;20.00;6.27;;;;;;;22.86;100.00;101310.41;5097535;28;20032;-54
2022/08/03 03:47:13;;;;;;;19.63;6.78;;;;;;;22.83;100.00;101316.41;5099672;28;20073;-47
2022/08/03 03:49:39;;;;;;;20.43;7.70;;;;;;;22.88;100.00;101313.69;5100743;28;20040;-48
2022/08/03 03:52:05;;;;;;;25.13;7.90;;;;;;;22.95;100.00;101310.72;5097299;28;20033;-50
2022/08/03 03:54:41;;;;;;;23.48;8.55;;;;;;;23.05;100.00;101312.66;5096433;28;20028;-49
2022/08/03 03:57:07;;;;;;;22.13;9.05;;;;;;;22.70;100.00;101301.38;5098971;28;20042;-50
2022/08/03 03:59:36;;;;;;;21.23;9.18;;;;;;;22.73;100.00;101310.94;5101793;28;20052;-50
2022/08/03 04:02:01;;;;;;;30.27;8.57;;;;;;;22.66;100.00;101305.72;5105425;28;20040;-50
2022/08/03 04:13:20;;;;;;;19.57;8.20;;;;;;;22.87;100.00;101311.25;5086316;28;20070;-49
2022/08/03 04:15:47;;;;;;;21.03;8.10;;;;;;;23.00;100.00;101310.72;5101538;28;20028;-47
2022/08/03 04:18:15;;;;;;;22.83;9.10;;;;;;;22.98;100.00;101307.44;5099405;28;20031;-50
2022/08/03 04:20:46;;;;;;;23.67;8.27;;;;;;;22.63;100.00;101306.25;5085607;28;20063;-49
2022/08/03 04:23:12;;;;;;;24.93;8.17;;;;;;;22.92;100.00;101314.00;5097956;28;20096;-49
2022/08/03 04:25:39;;;;;;;22.50;6.93;;;;;;;22.94;100.00;101310.97;5103004;28;20032;-51
2022/08/03 04:28:06;;;;;;;22.70;6.90;;;;;;;23.20;100.00;101314.59;5103558;28;20055;-51
2022/08/03 04:30:36;;;;;;;15.37;7.07;;;;;;;23.26;100.00;101313.56;5104032;28;20032;-49
2022/08/03 04:33:02;;;;;;;18.03;7.07;;;;;;;22.85;100.00;101313.44;5104477;28;20035;-50
2022/08/03 04:35:31;;;;;;;23.48;7.07;;;;;;;22.68;100.00;101317.16;5100724;28;20024;-46
2022/08/03 04:38:01;;;;;;;29.87;7.97;;;;;;;23.00;100.00;101318.91;5096159;28;20035;-49
2022/08/03 04:40:31;;;;;;;22.03;8.00;;;;;;;22.94;100.00;101322.72;5099329;28;20032;-49
2022/08/03 04:42:58;;;;;;;20.97;7.97;;;;;;;22.77;100.00;101317.47;5080428;28;20071;-47
2022/08/03 04:45:26;;;;;;;23.50;7.70;;;;;;;22.85;100.00;101316.97;5080187;28;20043;-50
2022/08/03 04:47:53;;;;;;;24.47;8.57;;;;;;;23.12;100.00;101321.41;5080051;28;20033;-51
2022/08/03 04:50:19;;;;;;;21.60;7.20;;;;;;;23.11;100.00;101327.16;5081799;28;20036;-54
2022/08/03 04:53:02;;;;;;;24.83;6.97;;;;;;;23.06;100.00;101325.22;5081121;28;20039;-49
2022/08/03 04:55:29;;;;;;;;;;;;;;;23.23;100.00;101329.63;5087888;28;20024;-52
2022/08/03 04:57:56;;;;;;;16.50;7.40;;;;;;;23.31;100.00;101329.94;5080951;28;19979;-54
2022/08/03 05:00:21;;;;;;;;;;;;;;;23.05;100.00;101332.56;5067109;28;20063;-53
2022/08/03 05:02:48;;;;;;;22.17;5.80;;;;;;;23.01;100.00;101334.19;5082081;28;19980;-50
2022/08/03 05:05:14;;;;;;;18.33;5.32;;;;;;;22.91;100.00;101339.63;5079467;28;20032;-52
2022/08/03 05:07:40;;;;;;;18.10;5.40;;;;;;;22.96;100.00;101341.56;5077245;28;20043;-48
2022/08/03 05:10:08;;;;;;;13.65;4.00;;;;;;;23.00;100.00;101342.66;5083065;28;20037;-52
2022/08/03 05:12:34;;;;;;;20.83;4.87;;;;;;;23.00;100.00;101343.47;5075245;28;20032;-51
2022/08/03 05:15:00;;;;;;;19.27;5.75;;;;;;;22.88;100.00;101345.59;5080052;28;20029;-52
2022/08/03 05:17:25;;;;;;;15.60;4.78;;;;;;;22.71;100.00;101341.16;5081367;28;20058;-51
2022/08/03 05:19:51;;;;;;;16.10;4.45;;;;;;;22.82;100.00;101335.75;5083234;28;20029;-51
2022/08/03 05:22:17;;;;;;;;;;;;;;;22.96;100.00;101347.81;5082513;28;20040;-53
2022/08/03 05:24:43;;;;;;;13.80;4.73;;;;;;;22.97;100.00;101349.44;5082552;28;19923;-53
2022/08/03 05:27:08;;;;;;;16.85;4.90;;;;;;;23.42;100.00;101347.16;5082664;28;20041;-52
2022/08/03 05:29:34;;;;;;;9.57;4.50;;;;;;;23.22;100.00;101347.88;5083742;28;20040;-52
2022/08/03 05:32:00;;;;;;;28.42;5.30;;;;;;;23.09;100.00;101348.41;5081430;28;20028;-52
2022/08/03 05:34:26;;;;;;;24.57;5.23;;;;;;;23.39;100.00;101352.34;5078116;28;20017;-53
2022/08/03 05:36:51;;;;;;;13.38;4.53;;;;;;;23.45;100.00;101353.97;5076063;28;20079;-53
2022/08/03 05:39:16;;;;;;;10.98;4.15;;;;;;;23.71;100.00;101354.84;5074385;28;20037;-52
2022/08/03 05:41:42;;;;;;;16.35;4.93;;;;;;;23.55;100.00;101345.81;5090137;28;20055;-53
2022/08/03 05:44:07;;;;;;;13.60;4.57;;;;;;;23.33;100.00;101362.41;5097653;28;20041;-52
2022/08/03 05:46:33;;;;;;;21.92;4.63;;;;;;;23.13;100.00;101353.03;5100347;28;20040;-54
2022/08/03 05:48:58;;;;;;;17.50;4.97;;;;;;;23.17;100.00;101356.88;5094951;28;20040;-55
2022/08/03 05:51:24;;;;;;;15.50;4.38;;;;;;;23.27;100.00;101364.28;5097872;28;20309;-54
2022/08/03 05:53:50;;;;;;;18.85;5.13;;;;;;;23.29;100.00;101366.78;5093861;28;20070;-53
2022/08/03 05:56:15;;;;;;;11.98;4.65;;;;;;;23.46;100.00;101366.53;5099513;28;20060;-51
2022/08/03 05:58:42;;;;;;;14.77;4.68;;;;;;;23.64;100.00;101351.53;5100040;28;20042;-50
2022/08/03 06:01:08;;;;;;;21.80;5.20;;;;;;;23.57;100.00;101357.28;5083716;28;20033;-51
2022/08/03 06:03:33;;;;;;;23.92;4.25;;;;;;;23.63;100.00;101353.47;5085965;28;20043;-51
2022/08/03 06:05:59;;;;;;;20.23;5.35;;;;;;;23.73;100.00;101360.00;5083165;28;20036;-47
2022/08/03 06:08:24;;;;;;;16.05;4.93;;;;;;;23.80;100.00;101355.13;5094059;28;20073;-48
2022/08/03 06:10:50;;;;;;;20.77;4.65;;;;;;;23.70;100.00;101357.81;5090417;28;20066;-51
2022/08/03 06:13:15;;;;;;;15.63;4.28;;;;;;;23.58;100.00;101358.09;5101847;28;20051;-52
2022/08/03 06:15:41;;;;;;;12.32;4.32;;;;;;;23.55;100.00;101362.19;5089382;28;20036;-53
2022/08/03 06:18:07;;;;;;;;;;;;;;;23.63;100.00;101364.38;5091597;28;20036;-52
2022/08/03 06:20:33;;;;;;;21.07;5.17;;;;;;;23.38;100.00;101375.25;5096180;28;19923;-51
2022/08/03 06:22:59;;;;;;;13.93;3.67;;;;;;;23.65;100.00;101361.41;5093552;28;20063;-51
2022/08/03 06:25:25;;;;;;;15.02;4.50;;;;;;;23.73;100.00;101371.78;5099749;28;20036;-49
2022/08/03 06:27:50;;;;;;;15.32;3.38;;;;;;;23.77;100.00;101363.88;5098107;28;20032;-51
2022/08/03 06:30:17;;;;;;;14.15;4.20;;;;;;;23.74;100.00;101362.47;5098311;28;20032;-49
2022/08/03 06:32:43;;;;;;;16.70;4.33;;;;;;;23.62;100.00;101364.63;5094976;28;20024;-52
2022/08/03 06:35:10;;;;;;;17.77;4.22;;;;;;;23.64;100.00;101367.91;5095086;28;20121;-51
2022/08/03 06:37:44;;;;;;;25.50;4.53;;;;;;;23.76;100.00;101360.28;5093752;28;20035;-51
2022/08/03 06:40:19;;;;;;;14.37;4.03;;;;;;;23.67;100.00;101370.13;5095554;28;20028;-49
2022/08/03 06:42:45;;;;;;;19.90;4.27;;;;;;;23.75;100.00;101371.47;5093950;28;20036;-52
2022/08/03 06:45:11;;;;;;;17.88;5.13;;;;;;;23.74;100.00;101376.13;5093598;28;20119;-48
2022/08/03 06:47:37;;;;;;;;;;;;;;;23.75;100.00;101371.47;5092040;28;20025;-50
2022/08/03 06:50:08;;;;;;;14.30;4.27;;;;;;;23.92;100.00;101379.44;5100124;28;19950;-52
2022/08/03 06:52:34;;;;;;;17.00;3.67;;;;;;;24.09;100.00;101378.34;5098276;28;20446;-50
2022/08/03 06:55:00;;;;;;;14.43;4.10;;;;;;;23.98;100.00;101383.78;5097736;28;20039;-48
2022/08/03 06:57:25;;;;;;;14.68;3.95;;;;;;;23.45;100.00;101381.28;5090728;28;20032;-48
2022/08/03 06:59:51;;;;;;;18.08;5.03;;;;;;;24.08;100.00;101385.75;5092862;28;20044;-49
2022/08/03 07:02:19;;;;;;;16.38;4.10;;;;;;;24.13;100.00;101380.25;5087092;28;20045;-49
2022/08/03 07:04:46;;;;;;;21.80;4.20;;;;;;;24.14;100.00;101392.03;5087894;28;20127;-51
2022/08/03 07:07:12;;;;;;;20.90;4.93;;;;;;;24.19;100.00;101384.63;5092596;28;20037;-52
2022/08/03 07:09:38;;;;;;;13.60;4.73;;;;;;;24.40;100.00;101392.78;5097676;28;20028;-52
2022/08/03 07:12:05;;;;;;;21.95;4.18;;;;;;;24.54;100.00;101384.84;5096755;28;20058;-52
2022/08/03 07:14:31;;;;;;;20.47;4.67;;;;;;;24.25;100.00;101392.84;5100374;28;20043;-49
2022/08/03 07:16:56;;;;;;;21.00;3.70;;;;;;;24.09;100.00;101384.63;5095426;28;20044;-50
2022/08/03 07:19:22;;;;;;;15.98;3.78;;;;;;;24.14;100.00;101387.38;5102195;28;20063;-51
2022/08/03 07:21:47;;;;;;;17.10;4.43;;;;;;;24.37;100.00;101393.34;5101319;28;20032;-49
2022/08/03 07:24:13;;;;;;;21.67;4.13;;;;;;;24.36;100.00;101394.44;5103724;28;20043;-48
2022/08/03 07:26:38;;;;;;;;;;;;;;;24.23;100.00;101397.75;5093029;28;20047;-52
2022/08/03 07:29:04;;;;;;;20.13;4.23;;;;;;;24.43;100.00;101397.72;5100282;28;19959;-48
2022/08/03 07:31:29;;;;;;;18.23;4.20;;;;;;;24.36;100.00;101394.44;5093341;28;20032;-53
2022/08/03 07:33:55;;;;;;;19.77;3.72;;;;;;;24.85;100.00;101397.63;5087086;28;20118;-48
2022/08/03 07:36:21;;;;;;;19.73;3.35;;;;;;;24.53;100.00;101405.06;5090667;28;20092;-49
2022/08/03 07:38:46;;;;;;;25.00;3.55;;;;;;;24.83;100.00;101397.94;5092050;28;20033;-51
2022/08/03 07:41:12;;;;;;;12.65;3.65;;;;;;;24.99;100.00;101395.13;5068875;28;20059;-48
2022/08/03 07:43:38;;;;;;;16.25;3.13;;;;;;;25.01;100.00;101404.69;5088041;28;20041;-53
2022/08/03 07:46:03;;;;;;;18.45;4.03;;;;;;;25.12;100.00;101400.00;5089780;28;20051;-53
2022/08/03 07:48:29;;;;;;;16.85;3.88;;;;;;;25.30;100.00;101403.22;5089766;28;20109;-53
2022/08/03 07:50:54;;;;;;;15.98;3.53;;;;;;;24.65;100.00;101396.56;5094537;28;20036;-51
2022/08/03 07:53:20;;;;;;;15.90;4.22;;;;;;;25.35;100.00;101393.03;5088162;28;20033;-50
2022/08/03 07:55:45;;;;;;;19.15;3.35;;;;;;;25.48;100.00;101396.28;5089763;28;20063;-50
2022/08/03 07:58:14;;;;;;;15.25;3.13;;;;;;;25.57;100.00;101391.84;5089253;28;20055;-53
2022/08/03 08:00:41;;;;;;;15.37;3.60;;;;;;;25.48;100.00;101388.88;5089304;28;20037;-50
2022/08/03 08:03:07;;;;;;;15.23;3.17;;;;;;;25.67;100.00;101392.88;5089418;28;20033;-51
2022/08/03 08:05:33;;;;;;;23.20;7.67;;;;;;;25.67;100.00;101393.69;5088544;28;20076;-53
2022/08/03 08:08:00;;;;;;;21.90;4.57;;;;;;;25.73;100.00;101397.22;5091419;28;20032;-52
2022/08/03 08:10:26;;;;;;;22.60;5.57;;;;;;;26.06;100.00;101392.84;5088907;28;20116;-54
2022/08/03 08:12:52;;;;;;;22.67;4.68;;;;;;;26.25;100.00;101397.66;5087799;28;20037;-49
2022/08/03 08:15:18;;;;;;;21.60;4.13;;;;;;;26.01;100.00;101406.59;5087656;28;20092;-55
2022/08/03 08:17:49;;;;;;;20.00;3.85;;;;;;;25.80;100.00;101405.91;5088471;28;20033;-51
2022/08/03 08:20:23;;;;;;;26.53;3.40;;;;;;;25.96;100.00;101400.34;5086467;28;20091;-54
2022/08/03 08:22:49;;;;;;;23.20;2.97;;;;;;;25.95;100.00;101395.97;5088907;28;20119;-49
2022/08/03 08:25:15;;;;;;;14.45;3.08;;;;;;;26.28;100.00;101388.84;5089878;28;20036;-56
2022/08/03 08:27:44;;;;;;;;;;;;;;;26.32;100.00;101392.63;5088986;28;20062;-53
2022/08/03 08:30:10;;;;;;;16.57;3.73;;;;;;;26.42;100.00;101396.41;5087477;28;19924;-51
2022/08/03 08:32:36;;;;;;;24.57;3.97;;;;;;;26.59;100.00;101396.75;5085165;28;20045;-54
2022/08/03 08:35:02;;;;;;;;;;;;;;;26.51;100.00;101402.88;5091969;28;20055;-52
2022/08/03 08:37:28;;;;;;;21.03;4.53;;;;;;;26.59;100.00;101393.19;5084192;28;19947;-54
2022/08/03 08:39:54;;;;;;;;;;;;;;;26.66;100.00;101393.66;5087464;28;20037;-50
2022/08/03 08:42:20;;;;;;;14.88;3.65;;;;;;;26.85;100.00;101395.66;5088219;28;19942;-50
2022/08/03 08:44:46;;;;;;;37.30;11.27;;;;;;;26.76;100.00;101396.31;5088889;28;20036;-52
2022/08/03 08:47:12;;;;;;;;;;;;;;;26.74;100.00;101403.97;5087054;28;20032;-52
2022/08/03 08:49:40;;;;;;;19.87;4.13;;;;;;;27.11;100.00;101400.84;5085434;28;19920;-49
2022/08/03 08:52:07;;;;;;;41.23;5.37;;;;;;;27.41;100.00;101404.25;5092460;28;20040;-53
2022/08/03 08:54:35;;;;;;;25.63;3.33;;;;;;;27.26;100.00;101408.88;5096955;28;20037;-50
2022/08/03 08:57:03;;;;;;;18.27;3.43;;;;;;;27.33;100.00;101409.31;5089530;28;20606;-48
2022/08/03 08:59:32;;;;;;;26.07;4.00;;;;;;;27.51;100.00;101404.16;5091442;28;20147;-51
2022/08/03 09:01:58;;;;;;;23.63;5.93;;;;;;;27.29;100.00;101407.44;5085401;28;20062;-51
2022/08/03 09:04:23;;;;;;;;;;;;;;;27.38;100.00;101410.34;5086851;28;20056;-53
2022/08/03 09:06:50;;;;;;;21.97;3.57;;;;;;;27.46;100.00;101413.25;5091554;28;19923;-49
2022/08/03 09:09:16;;;;;;;20.87;3.67;;;;;;;27.65;100.00;101403.41;5069779;28;20048;-52
2022/08/03 09:11:41;;;;;;;;;;;;;;;27.65;100.00;101403.41;5096214;28;20043;-52
2022/08/03 09:14:08;;;;;;;56.33;23.27;;;;;;;28.08;100.00;101410.69;5091276;28;19976;-49
2022/08/03 09:16:33;;;;;;;22.17;6.33;;;;;;;28.29;100.00;101406.50;5092472;28;20196;-49
2022/08/03 09:19:11;;;;;;;;;;;;;;;28.39;100.00;101404.69;5094006;28;20029;-52
2022/08/03 09:21:36;;;;;;;33.30;6.28;;;;;;;28.56;100.00;101406.81;5091560;28;19941;-50
2022/08/03 09:24:05;;;;;;;27.03;5.83;;;;;;;28.59;100.00;101408.97;5091365;28;20056;-47
2022/08/03 09:26:35;;;;;;;30.07;6.37;;;;;;;28.73;100.00;101409.78;5098749;28;20040;-50
2022/08/03 09:29:09;;;;;;;23.43;4.90;;;;;;;28.87;100.00;101409.03;5088874;28;20088;-51
2022/08/03 09:31:40;;;;;;;27.67;9.85;;;;;;;29.07;100.00;101415.22;5093607;28;20059;-49
2022/08/03 09:34:07;;;;;;;18.30;4.10;;;;;;;29.04;100.00;101411.94;5094785;28;20064;-49
2022/08/03 09:36:37;;;;;;;24.65;3.42;;;;;;;29.56;100.00;101410.03;5092979;28;20112;-49
2022/08/03 09:39:05;;;;;;;30.25;5.25;;;;;;;30.13;100.00;101403.97;5090556;28;20029;-49
2022/08/03 09:41:32;;;;;;;19.98;3.85;;;;;;;30.20;100.00;101431.09;5080568;28;20060;-52
2022/08/03 09:43:58;;;;;;;18.77;3.17;;;;;;;30.68;100.00;101418.53;5076433;28;20123;-51
2022/08/03 09:46:23;;;;;;;17.25;4.25;;;;;;;31.47;100.00;101412.38;5074815;28;20048;-53
2022/08/03 09:48:48;;;;;;;13.70;2.92;;;;;;;31.92;100.00;101408.44;5075040;28;20068;-50
2022/08/03 09:51:17;;;;;;;27.60;3.80;;;;;;;32.47;100.00;101412.38;5075119;28;20029;-51
2022/08/03 09:53:43;;;;;;;22.27;2.97;;;;;;;33.14;100.00;101422.97;5075423;28;20051;-52
2022/08/03 09:56:08;;;;;;;19.15;3.25;;;;;;;32.93;100.00;101422.13;5072422;28;20045;-52
2022/08/03 09:58:44;;;;;;;14.60;2.78;;;;;;;33.30;100.00;101425.13;5083572;28;20033;-50
2022/08/03 10:01:09;;;;;;;20.17;2.65;;;;;;;33.59;100.00;101426.25;5080381;28;20028;-53
2022/08/03 10:03:37;;;;;;;20.55;3.80;;;;;;;33.72;100.00;101441.75;5080010;28;20091;-53
2022/08/03 10:06:22;;;;;;;23.05;3.65;;;;;;;33.35;100.00;101433.25;5072401;28;20051;-52
2022/08/03 10:09:10;;;;;;;10.63;2.22;;;;;;;33.74;100.00;101436.69;5071414;28;20063;-49
2022/08/03 10:11:37;;;;;;;14.15;3.42;;;;;;;35.30;94.62;101439.09;5069753;28;20040;-55
2022/08/03 10:14:05;;;;;;;18.17;3.30;;;;;;;35.07;91.07;101444.34;5078302;28;20036;-48
2022/08/03 10:16:34;;;;;;;16.70;2.92;;;;;;;34.34;88.93;101437.56;5069232;28;20037;-52
2022/08/03 10:19:00;;;;;;;22.42;2.80;;;;;;;34.17;90.29;101431.91;5071633;28;20036;-51
2022/08/03 10:21:32;;;;;;;16.15;3.83;;;;;;;35.07;85.57;101438.00;5079291;28;20458;-51
2022/08/03 10:24:02;;;;;;;14.80;2.42;;;;;;;35.08;84.77;101425.72;5070461;28;20033;-50
2022/08/03 10:26:30;;;;;;;14.07;3.90;;;;;;;36.17;78.24;101426.81;5066258;28;20024;-54
2022/08/03 10:29:00;;;;;;;17.08;3.55;;;;;;;35.74;79.80;101430.03;5071026;28;20067;-54
2022/08/03 10:31:34;;;;;;;12.60;2.55;;;;;;;36.23;77.63;101425.38;5077320;28;20025;-51
2022/08/03 10:34:03;;;;;;;20.73;4.07;;;;;;;35.38;78.16;101433.72;5075826;28;20029;-54
2022/08/03 10:36:30;;;;;;;18.88;2.65;;;;;;;36.38;71.85;101426.53;5071640;28;20290;-52
2022/08/03 10:38:57;;;;;;;12.80;2.83;;;;;;;37.05;63.93;101422.19;5070821;28;20033;-52
2022/08/03 10:41:29;;;;;;;17.27;2.70;;;;;;;35.70;70.06;101422.72;5072610;28;20067;-52
2022/08/03 10:44:01;;;;;;;15.55;2.17;;;;;;;36.95;65.25;101420.72;5086177;28;20029;-52
2022/08/03 10:46:28;;;;;;;17.63;2.60;;;;;;;36.91;62.33;101428.22;5088462;28;20037;-53
2022/08/03 10:48:55;;;;;;;15.77;2.65;;;;;;;37.08;63.37;101415.88;5094670;28;20107;-50
2022/08/03 10:51:22;;;;;;;15.73;2.58;;;;;;;36.80;64.25;101411.25;5094686;28;20059;-54
2022/08/03 10:53:47;;;;;;;19.65;2.47;;;;;;;37.18;63.17;101408.91;5098411;28;20029;-51
2022/08/03 10:59:45;;;;;;;12.93;2.80;;;;;;;37.33;61.66;101398.03;5096095;28;20040;-51
2022/08/03 11:02:12;;;;;;;18.33;2.90;;;;;;;37.34;60.89;101420.00;5094659;28;20036;-54
2022/08/03 11:04:39;;;;;;;10.55;2.88;;;;;;;37.51;59.24;101402.03;5092050;28;20131;-56
2022/08/03 11:07:23;;;;;;;17.48;2.35;;;;;;;37.51;56.73;101398.44;5091575;28;20029;-53
2022/08/03 11:09:53;;;;;;;11.57;2.03;;;;;;;37.20;54.96;101409.34;5088404;28;20058;-54
2022/08/03 11:12:25;;;;;;;18.95;2.90;;;;;;;37.71;51.65;101413.16;5088569;28;20054;-54
2022/08/03 11:14:52;;;;;;;11.32;4.57;;;;;;;37.97;53.23;101412.47;5084144;28;20040;-53
2022/08/03 11:17:18;;;;;;;16.33;5.32;;;;;;;37.70;51.66;101412.34;5082214;28;20107;-51
2022/08/03 11:19:48;;;;;;;13.90;3.20;;;;;;;38.80;48.94;101415.78;5082214;28;20029;-51
2022/08/03 11:22:15;;;;;;;21.48;3.67;;;;;;;38.68;48.76;101414.03;5096933;28;20041;-54
2022/08/03 11:24:41;;;;;;;15.77;3.47;;;;;;;39.48;47.37;101417.09;5093515;28;20028;-53
2022/08/03 11:27:24;;;;;;;14.50;2.55;;;;;;;38.78;48.22;101411.78;5092799;28;20040;-52
2022/08/03 11:30:06;;;;;;;10.20;2.05;;;;;;;39.17;47.76;101411.53;5092835;28;20096;-52